Flight Track Log - Related Links

Times and Time Zones

All times are in EDT time to prevent confusion due to time zone crossing. See the AAL1459 flight status page for this flight to view local times or setup timezone preferences in your user account.

Time Position Orientation Groundspeed Altitude Reporting Facility
EDT Latitude Longitude Course Direction KTS MPH feet Rate Location/Type
Fri 06:30:48 PM 42.0000 -87.9500 270° West 171 197 2,300  Level Chicago TRACON
Fri 06:31:48 PM 42.0000 -88.0167 270° West 224 258 4,200 2,430 Climbing Chicago TRACON
Fri 06:32:49 PM 42.0000 -88.1167 270° West 253 291 7,200 3,099 Climbing Chicago TRACON
Fri 06:33:00 PM 41.9667 -88.3446 270° West  Level FlightAware Approximate
Fri 06:33:19 PM 41.9939 -88.1631 260° West 242 278 8,900  Level Chicago Center
Fri 06:34:00 PM 41.9667 -88.4928 270° West  Level FlightAware Approximate
Fri 06:34:21 PM 41.9917 -88.2561 268° West 250 288 12,300  Level Chicago Center
Fri 06:35:00 PM 41.9668 -88.6411 270° West  Level FlightAware Approximate
Fri 06:35:23 PM 41.9903 -88.3586 269° West 271 312 14,000  Level Chicago Center
Fri 06:36:00 PM 41.9667 -88.7977 270° West  Level FlightAware Approximate
Fri 06:36:25 PM 42.0069 -88.4814 280° West 332 382 16,200  Level Chicago Center
Fri 06:37:27 PM 42.0211 -88.6078 279° West 341 392 19,100 2,784 Climbing Chicago Center
Fri 06:38:30 PM 42.0414 -88.7617 280° West 351 404 22,000 2,448 Climbing Chicago Center
Fri 06:39:32 PM 42.0578 -88.8925 280° West 356 410 24,200 2,081 Climbing Chicago Center
Fri 06:40:34 PM 42.0767 -89.0367 280° West 358 412 26,300 1,694 Climbing Chicago Center
Fri 06:41:36 PM 42.0839 -89.1750 274° West 367 422 27,700 1,306 Climbing Chicago Center
Fri 06:42:38 PM 42.0917 -89.3189 274° West 381 438 29,000 1,548 Climbing Chicago Center
Fri 06:43:40 PM 42.0989 -89.4619 274° West 380 437 30,900 1,355 Climbing Chicago Center
Fri 06:44:42 PM 42.1075 -89.6067 275° West 389 448 31,800 1,065 Climbing Chicago Center
Fri 06:45:44 PM 42.1175 -89.7517 275° West 392 451 33,100 1,258 Climbing Chicago Center
Fri 06:46:46 PM 42.1317 -89.9217 276° West 390 449 34,400 1,113 Climbing Chicago Center
Fri 06:47:48 PM 42.1442 -90.0517 277° West 390 449 35,400 816 Climbing Chicago Center
Fri 06:48:51 PM 42.1539 -90.1950 275° West 389 448 36,100 480 Climbing Chicago Center
Fri 06:49:53 PM 42.1644 -90.3744 275° West 399 459 36,400 484 Climbing Chicago Center
Fri 06:50:55 PM 42.1742 -90.5269 275° West 408 470 37,100 677 Climbing Chicago Center
Fri 06:51:57 PM 42.1936 -90.6783 280° West 410 472 37,800 435 Climbing Chicago Center
Fri 06:52:59 PM 42.2139 -90.8294 280° West 412 474 38,000 97 Climbing Chicago Center
Fri 06:54:01 PM 42.2342 -90.9803 280° West 412 474 38,000  Level Chicago Center
Fri 06:55:03 PM 42.2558 -91.1628 279° West 413 475 38,000  Level Chicago Center
Fri 06:56:05 PM 42.2758 -91.3142 280° West 410 472 38,000  Level Chicago Center
Fri 06:57:07 PM 42.2936 -91.4636 279° West 405 466 38,000  Level Chicago Center
Fri 06:58:09 PM 42.3128 -91.6147 280° West 408 470 38,000  Level Chicago Center
Fri 06:59:11 PM 42.3317 -91.7647 280° West 405 466 38,000  Level Chicago Center
Fri 07:00:47 PM 42.3469 -92.0072 275° West 402 463 38,000  Level Minneapolis Center
Fri 07:01:18 PM 42.3492 -92.0942 272° West 401 461 38,000  Level Chicago Center
Fri 07:01:49 PM 42.3517 -92.1575 273° West 401 461 38,000  Level Minneapolis Center
Fri 07:02:51 PM 42.3564 -92.3086 272° West 403 464 38,000  Level Minneapolis Center
Fri 07:03:53 PM 42.3628 -92.4894 273° West 403 464 38,000  Level Minneapolis Center
Fri 07:04:55 PM 42.3661 -92.6403 272° West 404 465 38,000  Level Minneapolis Center
Fri 07:05:56 PM 42.3694 -92.7897 272° West 401 461 38,000  Level Minneapolis Center
Fri 07:06:58 PM 42.3744 -92.9394 273° West 401 461 38,000  Level Minneapolis Center
Fri 07:08:00 PM 42.3794 -93.0911 273° West 405 466 38,000  Level Minneapolis Center
Fri 07:09:02 PM 42.3825 -93.2417 272° West 405 466 38,000  Level Minneapolis Center
Fri 07:10:04 PM 42.3867 -93.4211 272° West 402 463 38,000  Level Minneapolis Center
Fri 07:11:06 PM 42.3897 -93.5703 272° West 400 460 38,000  Level Minneapolis Center
Fri 07:12:08 PM 42.3919 -93.7175 271° West 398 458 38,000  Level Minneapolis Center
Fri 07:13:10 PM 42.3953 -93.8639 272° West 394 453 38,000  Level Minneapolis Center
Fri 07:14:12 PM 42.3969 -94.0131 271° West 398 458 38,000  Level Minneapolis Center
Fri 07:15:14 PM 42.4003 -94.1928 271° West 401 461 38,000  Level Minneapolis Center
Fri 07:16:16 PM 42.4022 -94.3289 271° West 402 463 38,000  Level Minneapolis Center
Fri 07:17:18 PM 42.4047 -94.4800 271° West 403 464 38,000  Level Minneapolis Center
Fri 07:18:20 PM 42.4069 -94.6633 271° West 406 467 38,000  Level Minneapolis Center
Fri 07:19:22 PM 42.4089 -94.7856 271° West 408 470 38,000  Level Minneapolis Center
Fri 07:20:24 PM 42.4111 -94.9711 271° West 411 473 38,000  Level Minneapolis Center
Fri 07:21:26 PM 42.4108 -95.1267 270° West 413 475 38,000  Level Minneapolis Center
Fri 07:22:28 PM 42.4114 -95.2819 270° West 414 476 38,000  Level Minneapolis Center
Fri 07:23:30 PM 42.4122 -95.4683 270° West 414 476 38,000  Level Minneapolis Center
Fri 07:24:32 PM 42.4125 -95.6258 270° West 419 482 38,000  Level Minneapolis Center
Fri 07:25:34 PM 42.4122 -95.7831 270° West 419 482 38,000  Level Minneapolis Center
Fri 07:26:36 PM 42.4128 -95.9400 270° West 418 481 38,000  Level Minneapolis Center
Fri 07:27:38 PM 42.4119 -96.0964 270° West 420 483 38,000  Level Minneapolis Center
Fri 07:28:40 PM 42.4114 -96.2536 270° West 418 481 38,000  Level Minneapolis Center
Fri 07:29:42 PM 42.4117 -96.4431 270° West 421 484 38,000  Level Minneapolis Center
Fri 07:30:44 PM 42.4100 -96.6011 269° West 422 486 38,000  Level Minneapolis Center
Fri 07:31:46 PM 42.4089 -96.7619 270° West 427 491 38,000  Level Minneapolis Center
Fri 07:32:48 PM 42.4075 -96.9222 269° West 427 491 38,000  Level Minneapolis Center
Fri 07:33:50 PM 42.4061 -97.0850 269° West 431 496 38,000  Level Minneapolis Center
Fri 07:34:52 PM 42.4039 -97.2478 269° West 434 499 38,000  Level Minneapolis Center
Fri 07:35:54 PM 42.4017 -97.4403 269° West 431 496 38,000  Level Minneapolis Center
Fri 07:36:55 PM 42.3994 -97.6006 269° West 428 493 38,000  Level Minneapolis Center
Fri 07:37:57 PM 42.3975 -97.7597 269° West 425 489 38,000  Level Minneapolis Center
Fri 07:38:59 PM 42.3947 -97.9122 269° West 424 488 38,000  Level Minneapolis Center
Fri 07:40:01 PM 42.3922 -98.0692 269° West 420 483 38,000  Level Minneapolis Center
Fri 07:41:03 PM 42.3886 -98.2589 269° West 421 484 38,000  Level Minneapolis Center
Fri 07:42:05 PM 42.3842 -98.4150 268° West 418 481 38,000  Level Minneapolis Center
Fri 07:43:07 PM 42.3811 -98.5725 269° West 419 482 38,000  Level Minneapolis Center
Fri 07:44:09 PM 42.3772 -98.7292 268° West 419 482 38,000  Level Minneapolis Center
Fri 07:45:11 PM 42.3728 -98.8883 268° West 423 487 38,000  Level Minneapolis Center
Fri 07:46:13 PM 42.3697 -99.0447 269° West 419 482 38,000  Level Minneapolis Center
Fri 07:47:15 PM 42.3639 -99.2322 268° West 417 480 38,000  Level Minneapolis Center
Fri 07:48:16 PM 42.3592 -99.3881 268° West 416 479 38,000  Level Minneapolis Center
Fri 07:48:43 PM 42.3564 -99.4489 266° West 412 474 38,000  Level Denver Center
Fri 07:49:45 PM 42.3519 -99.6031 268° West 412 474 38,000  Level Denver Center
Fri 07:50:47 PM 42.3472 -99.7625 268° West 404 465 38,000  Level Denver Center
Fri 07:51:49 PM 42.3425 -99.8806 267° West 397 457 38,000  Level Denver Center
Fri 07:52:52 PM 42.3364 -100.0708 268° West 398 458 38,000  Level Denver Center
Fri 07:53:54 PM 42.3300 -100.2331 267° West 390 449 38,000  Level Denver Center
Fri 07:54:56 PM 42.3247 -100.3700 267° West 386 444 38,000  Level Denver Center
Fri 07:55:58 PM 42.3194 -100.5069 267° West 383 441 38,000  Level Denver Center
Fri 07:57:00 PM 42.3131 -100.6692 267° West 386 444 38,000  Level Denver Center
Fri 07:58:02 PM 42.3069 -100.8097 267° West 391 450 38,000  Level Denver Center
Fri 07:59:04 PM 42.2997 -100.9728 267° West 391 450 38,000  Level Denver Center
Fri 08:00:06 PM 42.2928 -101.1136 266° West 393 452 38,000  Level Denver Center
Fri 08:01:08 PM 42.2861 -101.2767 267° West 391 450 38,000  Level Denver Center
Fri 08:02:10 PM 42.2800 -101.4172 267° West 394 453 38,000  Level Denver Center
Fri 08:03:12 PM 42.2714 -101.5811 266° West 395 455 38,000  Level Denver Center
Fri 08:04:26 PM 42.2639 -101.7208 266° West 392 451 38,000  Level Denver Center
Fri 08:05:28 PM 42.2542 -101.9078 266° West 394 453 38,000  Level Denver Center
Fri 08:06:31 PM 42.2453 -102.0736 266° West 398 458 38,000  Level Denver Center
Fri 08:07:33 PM 42.2369 -102.2228 266° West 400 460 38,000  Level Denver Center
Fri 08:08:35 PM 42.2292 -102.3661 266° West 400 460 38,000  Level Denver Center
Fri 08:09:37 PM 42.2194 -102.5331 266° West 401 461 38,000  Level Denver Center
Fri 08:10:39 PM 42.2122 -102.6756 266° West 400 460 38,000  Level Denver Center
Fri 08:11:41 PM 42.2008 -102.8439 265° West 404 465 38,000  Level Denver Center
Fri 08:12:43 PM 42.1925 -102.9842 265° West 396 456 38,000  Level Denver Center
Fri 08:13:45 PM 42.1828 -103.1497 266° West 396 456 38,000  Level Denver Center
Fri 08:14:47 PM 42.1742 -103.2942 265° West 402 463 38,000  Level Denver Center
Fri 08:15:49 PM 42.1639 -103.4389 265° West 404 465 38,000  Level Denver Center
Fri 08:16:51 PM 42.1522 -103.6081 265° West 405 466 38,000  Level Denver Center
Fri 08:17:53 PM 42.1422 -103.7508 265° West 402 463 38,000  Level Denver Center
Fri 08:18:55 PM 42.1306 -103.9189 265° West 402 463 38,000  Level Denver Center
Fri 08:19:57 PM 42.1206 -104.0633 265° West 402 463 38,000  Level Denver Center
Fri 08:20:58 PM 42.1081 -104.2333 264° West 406 467 38,000  Level Denver Center
Fri 08:22:00 PM 42.0969 -104.3786 264° West 406 467 38,000  Level Denver Center
Fri 08:23:02 PM 42.0847 -104.5486 265° West 407 468 38,000  Level Denver Center
Fri 08:24:04 PM 42.0747 -104.6939 265° West 406 467 38,000  Level Denver Center
Fri 08:25:06 PM 42.0628 -104.8414 264° West 411 473 38,000  Level Denver Center
Fri 08:26:08 PM 42.0483 -105.0144 264° West 415 478 38,000  Level Denver Center
Fri 08:27:10 PM 42.0364 -105.1628 264° West 416 479 38,000  Level Denver Center
Fri 08:28:12 PM 42.0267 -105.2867 264° West 417 480 38,000  Level Denver Center
Fri 08:29:14 PM 42.0100 -105.4817 264° West 411 473 38,000  Level Denver Center
Fri 08:30:16 PM 41.9956 -105.6542 264° West 416 479 38,000  Level Denver Center
Fri 08:31:18 PM 41.9836 -105.8019 264° West 417 480 38,000  Level Denver Center
Fri 08:32:20 PM 41.9700 -105.9475 263° West 412 474 38,000  Level Denver Center
Fri 08:33:22 PM 41.9556 -106.1147 263° West 406 467 38,000  Level Denver Center
Fri 08:34:23 PM 41.9431 -106.2592 263° West 407 468 38,000  Level Denver Center
Fri 08:35:25 PM 41.9278 -106.4272 263° West 407 468 38,000  Level Denver Center
Fri 08:36:27 PM 41.9128 -106.5764 262° West 408 470 38,000  Level Denver Center
Fri 08:37:29 PM 41.8994 -106.7219 263° West 410 472 38,000  Level Denver Center
Fri 08:38:31 PM 41.8825 -106.8931 262° West 415 478 38,000  Level Denver Center
Fri 08:39:33 PM 41.8681 -107.0394 263° West 414 476 38,000  Level Denver Center
Fri 08:40:34 PM 41.8522 -107.2125 263° West 419 482 38,000  Level Denver Center
Fri 08:41:36 PM 41.8378 -107.3581 262° West 414 476 38,000  Level Denver Center
Fri 08:42:38 PM 41.8156 -107.5272 260° West 413 475 38,000  Level Denver Center
Fri 08:43:40 PM 41.7964 -107.6683 260° West 406 467 38,000  Level Denver Center
Fri 08:44:42 PM 41.7744 -107.8339 260° West 404 465 38,000  Level Denver Center
Fri 08:45:43 PM 41.7547 -107.9767 260° West 408 470 38,000  Level Denver Center
Fri 08:46:45 PM 41.7328 -108.1436 260° West 408 470 38,000  Level Denver Center
Fri 08:47:45 PM 41.7131 -108.2864 260° West 407 468 38,000  Level Salt Lake Center
Fri 08:48:46 PM 41.6933 -108.4283 260° West 407 468 38,000  Level Salt Lake Center
Fri 08:49:48 PM 41.6700 -108.5931 259° West 406 467 38,000  Level Salt Lake Center
Fri 08:50:50 PM 41.6506 -108.7336 260° West 404 465 38,000  Level Salt Lake Center
Fri 08:51:51 PM 41.6275 -108.8958 259° West 402 463 38,000  Level Salt Lake Center
Fri 08:52:53 PM 41.6081 -109.0339 259° West 399 459 38,000  Level Salt Lake Center
Fri 08:53:55 PM 41.5836 -109.1944 259° West 401 461 38,000  Level Salt Lake Center
Fri 08:54:56 PM 41.5639 -109.3333 259° West 404 465 38,000  Level Salt Lake Center
Fri 08:55:58 PM 41.5394 -109.4972 259° West 406 467 38,000  Level Salt Lake Center
Fri 08:56:59 PM 41.5186 -109.6372 259° West 405 466 38,000  Level Salt Lake Center
Fri 08:58:01 PM 41.4931 -109.8008 258° West 407 468 38,000  Level Salt Lake Center
Fri 08:59:02 PM 41.4719 -109.9417 259° West 405 466 38,000  Level Salt Lake Center
Fri 09:00:04 PM 41.4497 -110.0825 258° West 406 467 38,000  Level Salt Lake Center
Fri 09:01:06 PM 41.4247 -110.2464 259° West 406 467 38,000  Level Salt Lake Center
Fri 09:02:07 PM 41.4025 -110.3856 258° West 404 465 38,000  Level Salt Lake Center
Fri 09:03:09 PM 41.3769 -110.5497 258° West 405 466 38,000  Level Salt Lake Center
Fri 09:04:10 PM 41.3550 -110.6892 258° West 404 465 38,000  Level Salt Lake Center
Fri 09:05:12 PM 41.3319 -110.8297 258° West 407 468 38,000  Level Salt Lake Center
Fri 09:06:13 PM 41.3075 -110.9783 258° West 409 471 38,000  Level Salt Lake Center
Fri 09:07:15 PM 41.2781 -111.1569 258° West 413 475 38,000  Level Salt Lake Center
Fri 09:08:16 PM 41.2531 -111.3069 258° West 417 480 38,000  Level Salt Lake Center
Fri 09:09:17 PM 41.2289 -111.4561 258° West 417 480 38,000  Level Salt Lake Center
Fri 09:10:19 PM 41.2039 -111.6036 257° West 413 475 38,000  Level Salt Lake Center
Fri 09:11:20 PM 41.1789 -111.7494 257° West 411 473 38,000  Level Salt Lake Center
Fri 09:12:22 PM 41.1547 -111.8928 257° West 410 472 38,000  Level Salt Lake Center
Fri 09:13:23 PM 41.1247 -112.0664 257° West 413 475 38,000  Level Salt Lake Center
Fri 09:14:25 PM 41.1033 -112.2142 259° West 411 473 38,000  Level Salt Lake Center
Fri 09:15:26 PM 41.0858 -112.3606 261° West 405 466 38,000  Level Salt Lake Center
Fri 09:16:27 PM 41.0678 -112.5081 261° West 406 467 38,000  Level Salt Lake Center
Fri 09:17:29 PM 41.0489 -112.6550 260° West 407 468 38,000  Level Salt Lake Center
Fri 09:18:30 PM 41.0303 -112.8000 260° West 401 461 38,000  Level Salt Lake Center
Fri 09:19:32 PM 41.0111 -112.9439 260° West 399 459 38,000  Level Salt Lake Center
Fri 09:20:33 PM 40.9886 -113.1161 260° West 395 455 38,000  Level Salt Lake Center
Fri 09:21:35 PM 40.9700 -113.2589 260° West 395 455 38,000  Level Salt Lake Center
Fri 09:22:36 PM 40.9492 -113.4006 259° West 394 453 38,000  Level Salt Lake Center
Fri 09:23:38 PM 40.9303 -113.5428 260° West 394 453 38,000  Level Salt Lake Center
Fri 09:24:39 PM 40.9117 -113.6844 260° West 392 451 38,000  Level Salt Lake Center
Fri 09:25:40 PM 40.8917 -113.8275 260° West 395 455 38,000  Level Salt Lake Center
Fri 09:26:42 PM 40.8714 -113.9686 259° West 393 452 38,000  Level Salt Lake Center
Fri 09:27:43 PM 40.8522 -114.1089 260° West 391 450 38,000  Level Salt Lake Center
Fri 09:28:45 PM 40.8325 -114.2503 260° West 392 451 38,000  Level Salt Lake Center
Fri 09:29:46 PM 40.8075 -114.4208 259° West 394 453 38,000  Level Salt Lake Center
Fri 09:30:48 PM 40.7861 -114.5681 259° West 395 455 38,000  Level Salt Lake Center
Fri 09:31:49 PM 40.7667 -114.7042 259° West 394 453 38,000  Level Salt Lake Center
Fri 09:32:51 PM 40.7458 -114.8386 258° West 393 452 38,000  Level Salt Lake Center
Fri 09:33:52 PM 40.7231 -114.9975 259° West 394 453 38,000  Level Salt Lake Center
Fri 09:34:54 PM 40.7019 -115.1317 258° West 392 451 38,000  Level Salt Lake Center
Fri 09:35:55 PM 40.6769 -115.2892 258° West 392 451 38,000  Level Salt Lake Center
Fri 09:36:57 PM 40.6556 -115.4222 258° West 390 449 38,000  Level Salt Lake Center
Fri 09:37:58 PM 40.6356 -115.5564 259° West 390 449 38,000  Level Salt Lake Center
Fri 09:39:00 PM 40.6108 -115.7147 258° West 393 452 38,000  Level Salt Lake Center
Fri 09:40:01 PM 40.5903 -115.8508 259° West 395 455 38,000  Level Salt Lake Center
Fri 09:41:03 PM 40.5653 -116.0078 258° West 394 453 38,000  Level Salt Lake Center
Fri 09:42:04 PM 40.5450 -116.1425 259° West 394 453 38,000  Level Salt Lake Center
Fri 09:43:06 PM 40.5219 -116.2783 257° West 396 456 38,000  Level Salt Lake Center
Fri 09:44:07 PM 40.4967 -116.4353 258° West 394 453 38,000  Level Salt Lake Center
Fri 09:45:09 PM 40.4747 -116.5700 258° West 394 453 38,000  Level Salt Lake Center
Fri 09:46:10 PM 40.4492 -116.7269 258° West 396 456 38,000  Level Salt Lake Center
Fri 09:47:12 PM 40.4258 -116.8622 257° West 399 459 38,000  Level Salt Lake Center
Fri 09:48:13 PM 40.4017 -117.0106 258° West 394 453 38,000  Level Salt Lake Center
Fri 09:49:15 PM 40.3786 -117.1450 257° West 395 455 38,000  Level Salt Lake Center
Fri 09:50:17 PM 40.3525 -117.3003 258° West 392 451 38,000  Level Salt Lake Center
Fri 09:51:18 PM 40.3292 -117.4333 257° West 391 450 38,000  Level Salt Lake Center
Fri 09:52:20 PM 40.3017 -117.5864 257° West 389 448 38,000  Level Salt Lake Center
Fri 09:53:21 PM 40.2783 -117.7194 257° West 390 449 38,000  Level Salt Lake Center
Fri 09:54:23 PM 40.2553 -117.8511 257° West 389 448 38,000  Level Salt Lake Center
Fri 09:55:18 PM 40.2297 -118.0000 257° West 389 448 38,000 -414 Level Oakland Center
Fri 09:56:19 PM 40.2053 -118.1389 257° West 392 451 37,200 -1,426 Descending Oakland Center
Fri 09:57:20 PM 40.1803 -118.2786 257° West 394 453 35,100 -2,488 Descending Oakland Center
Fri 09:58:22 PM 40.1544 -118.4169 256° West 394 453 32,100 -2,878 Descending Oakland Center
Fri 09:59:23 PM 40.1281 -118.5631 257° West 411 473 29,200 -2,585 Descending Oakland Center
Fri 10:00:25 PM 40.1019 -118.7039 256° West 405 466 26,800 -2,000 Descending Oakland Center
Fri 10:01:26 PM 40.0747 -118.8431 256° West 398 458 25,100 -1,869 Descending Oakland Center
Fri 10:02:27 PM 40.0506 -118.9647 255° West 353 406 23,000 -2,508 Descending Oakland Center
Fri 10:03:28 PM 40.0231 -119.1053 256° West 338 389 20,000 -2,488 Descending Oakland Center
Fri 10:04:30 PM 39.9992 -119.2192 255° West 328 377 17,900 -1,951 Descending Oakland Center
Fri 10:05:31 PM 39.9769 -119.3322 256° West 324 373 16,000 -1,377 Descending Oakland Center
Fri 10:06:32 PM 39.9556 -119.4406 256° West 313 360 15,100 -1,328 Descending Oakland Center
Fri 10:07:33 PM 39.9300 -119.5461 253° West 308 354 13,300 -1,672 Descending Oakland Center
Fri 10:08:34 PM 39.9069 -119.6508 254° West 304 350 11,700 -1,623 Descending Oakland Center
Fri 10:09:35 PM 39.8728 -119.7397 243° Southwest 291 335 10,000 -829 Descending Oakland Center
Fri 10:10:37 PM 39.7986 -119.7669 196° South 290 334 10,000 -537 Level Oakland Center
Fri 10:11:38 PM 39.7256 -119.7686 181° South 273 314 8,900 -1,082 Descending Oakland Center

Login

Don't have an account? Register now (free) for customized features, flight alerts, and more!